Latest Weather Observations for Adelaide (West Terrace / ngayirdapira)

IDS60901

Issued at 6:21 pm CDT Monday 17 December 2018 (issued every 10 minutes, with the page automatically refreshed every 10 minutes)

About weather observations | Map of Adelaide area stations | Latest observations for Adelaide area | Other Formats
Station Details ID: 023000 Name: ADELAIDE (WEST TERRACE / NGAYIRDAPIRA) Lat: -34.93 Lon: 138.58 Height: 29.32 m
Data from the previous 72 hours. | See also: Recent months at Adelaide (West Terrace / ngayirdapira)
Date/Time
CDT
Temp
°C
App
Temp
°C
Dew
Point
°C
Rel
Hum
%
Delta-T
°C
Wind Press
QNH
hPa
Press
MSL
hPa
Rain since
9am
mm
Dir  Spd
km/h
Gust
km/h
Spd
kts
Gust
kts
17/06:00pm 24.8 23.7 14.3 52 6.2 SSE 13 20 7 11 1010.7 1010.6 0.0
17/05:30pm 25.2 23.8 14.6 51 6.3 SSE 15 22 8 12 1010.5 1010.4 0.0
17/05:00pm 25.6 24.4 15.0 52 6.4 SSE 15 24 8 13 1010.8 1010.7 0.0
17/04:30pm 25.3 23.1 15.0 53 6.2 S 20 30 11 16 1011.3 1011.2 0.0
17/04:00pm 26.4 25.3 15.4 50 6.7 SSE 15 28 8 15 1011.7 1011.6 0.0
17/03:30pm 26.8 26.0 15.2 49 7.0 SE 13 20 7 11 1011.2 1011.1 0.0
17/03:00pm 25.4 25.4 15.1 53 6.2 SSW 9 20 5 11 1011.7 1011.6 0.0
17/02:30pm 24.8 23.6 16.0 58 5.4 SW 17 26 9 14 1012.6 1012.5 0.0
17/02:00pm 24.5 23.2 15.7 58 5.3 SW 17 26 9 14 1013.0 1012.9 0.0
17/01:30pm 24.3 23.6 15.5 58 5.3 WSW 13 20 7 11 1013.2 1013.1 0.0
17/01:00pm 23.1 22.3 16.2 65 4.2 W 15 20 8 11 1013.5 1013.4 0.0
17/12:30pm 22.5 23.5 14.4 60 4.8 N 2 7 1 4 1013.7 1013.6 0.0
17/12:00pm 22.2 22.9 14.6 62 4.5 E 4 9 2 5 1013.5 1013.4 0.0
17/11:30am 21.8 21.6 14.7 64 4.2 N 9 15 5 8 1013.6 1013.5 0.0
17/11:00am 21.7 22.2 14.1 62 4.4 N 4 9 2 5 1013.4 1013.3 0.0
17/10:30am 21.0 21.3 13.4 62 4.4 NNW 4 9 2 5 1013.4 1013.3 0.0
17/10:00am 20.6 20.7 13.8 65 3.9 WNW 6 9 3 5 1013.3 1013.2 0.0
17/09:30am 19.7 20.8 13.4 67 3.6 CALM 0 0 0 0 1013.2 1013.1 0.0
17/09:00am 19.3 19.6 13.5 69 3.3 WSW 4 7 2 4 1012.8 1012.7 0.0
17/08:30am 18.4 19.4 13.1 71 3.0 CALM 0 0 0 0 1012.5 1012.4 0.0
17/08:00am 18.0 17.7 13.3 74 2.7 N 7 9 4 5 1012.2 1012.1 0.0
17/07:30am 17.6 18.2 13.1 75 2.5 NNE 2 7 1 4 1012.0 1011.9 0.0
17/07:00am 17.3 18.4 13.4 78 2.2 CALM 0 0 0 0 1011.4 1011.3 0.0
17/06:30am 16.2 16.5 13.5 84 1.5 S 4 7 2 4 1011.3 1011.2 0.0
17/06:00am 16.4 16.4 13.5 83 1.6 SSW 6 7 3 4 1011.4 1011.3 0.0
17/05:30am 16.9 16.4 13.8 82 1.8 S 9 13 5 7 1011.4 1011.3 0.0
17/05:00am 17.1 16.6 13.8 81 1.9 SSW 9 15 5 8 1011.3 1011.2 0.0
17/04:30am 17.2 15.8 13.5 79 2.1 SSE 13 20 7 11 1011.2 1011.1 0.0
17/04:11am 17.3 16.9 14.0 81 1.9 S 9 15 5 8 1011.0 1010.9 0.0
17/04:00am 17.3 16.1 14.0 81 1.9 S 13 20 7 11 1010.9 1010.8 0.0
17/03:30am 17.3 16.9 14.0 81 1.9 S 9 13 5 7 1011.0 1010.9 0.0
17/03:00am 17.3 16.1 14.0 81 1.9 S 13 19 7 10 1011.1 1011.0 0.0
17/02:48am 17.3 15.8 14.2 82 1.8 S 15 22 8 12 1011.1 1011.0 0.0
17/02:30am 17.3 16.2 14.4 83 1.7 SSW 13 20 7 11 1011.2 1011.1 0.0
17/02:00am 16.6 16.2 14.1 85 1.4 S 9 13 5 7 1010.8 1010.7 0.0
17/01:30am 16.4 16.4 14.2 87 1.3 S 7 11 4 6 1010.9 1010.8 0.0
17/01:00am 16.8 16.9 14.4 86 1.4 SSW 7 13 4 7 1011.3 1011.2 0.0
17/12:30am 17.1 16.8 14.4 84 1.6 SSW 9 13 5 7 1011.4 1011.3 0.0
17/12:00am 17.6 17.4 14.7 83 1.7 SSW 9 11 5 6 1011.6 1011.5 0.0
 
Date/Time
CDT
Temp
°C
App
Temp
°C
Dew
Point
°C
Rel
Hum
%
Delta-T
°C
Wind Press
QNH
hPa
Press
MSL
hPa
Rain since
9am
mm
Dir  Spd
km/h
Gust
km/h
Spd
kts
Gust
kts
16/11:30pm 18.1 17.1 14.6 80 2.0 SSW 13 17 7 9 1011.6 1011.5 0.0
16/11:00pm 18.9 18.5 15.2 79 2.2 SSW 11 17 6 9 1011.6 1011.5 0.0
16/10:30pm 18.9 19.5 15.8 82 1.8 SW 7 11 4 6 1011.4 1011.3 0.0
16/10:00pm 19.1 19.0 16.0 82 1.8 SW 11 19 6 10 1011.2 1011.1 0.0
16/09:30pm 19.4 20.3 16.1 81 2.0 SSW 6 11 3 6 1010.9 1010.8 0.0
16/09:00pm 19.0 20.0 16.4 85 1.6 S 6 11 3 6 1010.5 1010.4 0.0
16/08:30pm 19.0 18.6 16.2 84 1.7 SSW 13 20 7 11 1010.2 1010.1 0.0
16/08:00pm 19.3 19.7 16.2 82 1.9 SW 9 20 5 11 1010.4 1010.3 0.0
16/07:30pm 19.5 18.3 16.0 80 2.1 SSW 17 24 9 13 1010.0 1009.9 0.0
16/07:00pm 20.1 19.5 15.7 76 2.6 SW 13 20 7 11 1009.5 1009.4 0.0
16/06:30pm 20.7 20.2 15.9 74 2.9 SW 13 20 7 11 1009.1 1009.0 0.0
16/06:00pm 21.2 20.2 15.7 71 3.3 SW 15 24 8 13 1008.6 1008.5 0.0
16/05:30pm 21.4 20.0 15.5 69 3.5 SW 17 24 9 13 1008.5 1008.4 0.0
16/05:00pm 21.1 19.3 15.6 71 3.3 SW 19 28 10 15 1008.5 1008.4 0.0
16/04:30pm 21.6 20.4 16.1 71 3.3 SW 17 26 9 14 1008.4 1008.3 0.0
16/04:00pm 20.9 19.9 15.7 72 3.1 SW 15 24 8 13 1008.5 1008.4 0.0
16/03:37pm 20.9 20.2 15.4 71 3.3 SW 13 22 7 12 1008.5 1008.4 0.0
16/03:30pm 20.9 20.6 15.4 71 3.3 SW 11 20 6 11 1008.5 1008.4 0.0
16/03:00pm 20.2 19.6 15.6 75 2.7 SW 13 20 7 11 1008.7 1008.6 0.0
16/02:30pm 19.7 19.1 15.6 77 2.4 SW 13 24 7 13 1008.8 1008.7 0.0
16/02:00pm 19.5 18.1 15.6 78 2.3 SW 17 28 9 15 1008.9 1008.8 0.0
16/01:30pm 19.9 18.8 15.3 75 2.7 WSW 15 26 8 14 1009.0 1008.9 0.0
16/01:00pm 19.6 18.3 15.9 79 2.2 WSW 17 22 9 12 1009.2 1009.1 0.0
16/12:30pm 19.1 17.7 15.6 80 2.1 WSW 17 26 9 14 1009.1 1009.0 0.0
16/12:00pm 18.6 18.1 15.8 84 1.7 WSW 13 19 7 10 1009.1 1009.0 0.0
16/11:30am 18.7 17.8 15.8 83 1.7 WSW 15 24 8 13 1008.8 1008.7 0.0
16/11:00am 18.7 18.2 15.9 84 1.7 WSW 13 20 7 11 1008.3 1008.2 0.0
16/10:30am 18.0 17.1 15.8 87 1.3 SW 15 20 8 11 1008.2 1008.1 0.0
16/10:05am 17.7 17.2 15.9 89 1.1 SW 13 20 7 11 1008.4 1008.3 0.0
16/10:00am 17.6 17.2 16.1 91 0.9 SW 13 20 7 11 1008.4 1008.3 0.0
16/09:43am 17.6 16.7 15.9 90 1.0 WSW 15 22 8 12 1008.3 1008.2 0.0
16/09:30am 17.5 16.5 15.5 88 1.2 WSW 15 22 8 12 1008.3 1008.2 0.0
16/09:00am 17.4 17.3 15.9 91 0.9 WSW 11 20 6 11 1008.0 1007.9 1.4
16/08:30am 17.3 16.3 15.6 90 1.0 SW 15 22 8 12 1007.7 1007.6 1.4
16/08:00am 17.4 17.5 16.6 95 0.5 SW 11 15 6 8 1007.1 1007.0 1.4
16/07:30am 17.0 16.6 16.2 95 0.5 SW 13 22 7 12 1007.0 1006.9 1.4
16/07:00am 17.0 16.5 16.0 94 0.6 SW 13 19 7 10 1006.7 1006.6 1.2
16/06:36am 17.0 16.5 15.9 93 0.6 SW 13 20 7 11 1006.5 1006.4 1.0
16/06:30am 17.0 16.9 15.9 93 0.6 SW 11 24 6 13 1006.4 1006.3 1.0
16/06:00am 17.0 16.5 16.0 94 0.6 SW 13 24 7 13 1006.3 1006.2 1.0
16/05:55am 17.0 17.0 16.2 95 0.5 SW 11 20 6 11 1006.2 1006.1 1.0
16/05:30am 16.9 16.1 16.1 95 0.5 SW 15 20 8 11 1005.9 1005.8 1.0
16/05:20am 16.9 16.8 16.1 95 0.5 SW 11 20 6 11 1005.7 1005.6 1.0
16/05:03am 16.9 16.9 16.3 96 0.4 SW 11 15 6 8 1005.5 1005.4 1.0
16/05:00am 16.9 16.9 16.3 96 0.4 SW 11 20 6 11 1005.5 1005.4 1.0
16/04:30am 16.9 16.2 16.3 96 0.4 WSW 15 20 8 11 1005.3 1005.2 0.8
16/04:00am 17.0 16.5 16.0 94 0.6 WSW 13 22 7 12 1005.1 1005.0 0.2
16/03:44am 17.0 16.5 15.9 93 0.6 WSW 13 20 7 11 1004.9 1004.8 0.0
16/03:35am 17.0 16.5 15.9 93 0.6 WSW 13 20 7 11 1004.8 1004.7 0.0
16/03:30am 17.0 16.5 15.9 93 0.7 WSW 13 17 7 9 1004.9 1004.8 0.0
16/03:17am 17.0 16.5 15.9 93 0.6 WSW 13 20 7 11 1004.8 1004.7 0.0
16/03:00am 17.0 17.3 15.9 93 0.7 WSW 9 17 5 9 1004.8 1004.7 0.0
16/02:35am 17.0 17.4 16.2 95 0.5 SW 9 17 5 9 1004.8 1004.7 0.0
16/02:30am 17.2 17.6 16.4 95 0.5 SW 9 15 5 8 1004.9 1004.8 0.0
16/02:00am 17.1 16.6 16.0 93 0.6 SW 13 20 7 11 1005.1 1005.0 0.0
16/01:31am 17.3 16.8 15.8 91 0.9 SW 13 20 7 11 1005.3 1005.2 0.0
16/01:30am 17.3 16.8 15.8 91 0.9 SW 13 20 7 11 1005.3 1005.2 0.0
16/01:26am 17.3 16.7 15.6 90 1.0 SW 13 20 7 11 1005.3 1005.2 0.0
16/01:16am 17.2 16.2 15.7 91 0.9 WSW 15 22 8 12 1005.3 1005.2 0.0
16/01:00am 17.5 17.3 15.8 90 1.0 SW 11 20 6 11 1005.2 1005.1 0.0
16/12:30am 17.6 16.7 15.8 89 1.1 WSW 15 22 8 12 1005.4 1005.3 0.0
16/12:00am 17.8 17.2 15.6 87 1.3 SW 13 20 7 11 1005.5 1005.4 0.0
 
Date/Time
CDT
Temp
°C
App
Temp
°C
Dew
Point
°C
Rel
Hum
%
Delta-T
°C
Wind Press
QNH
hPa
Press
MSL
hPa
Rain since
9am
mm
Dir  Spd
km/h
Gust
km/h
Spd
kts
Gust
kts
15/11:30pm 18.0 17.4 15.6 86 1.4 WSW 13 19 7 10 1005.3 1005.2 0.0
15/11:00pm 17.9 17.5 15.3 85 1.5 SW 11 17 6 9 1005.2 1005.1 0.0
15/10:51pm 17.9 17.2 15.5 86 1.4 WSW 13 20 7 11 1005.1 1005.0 0.0
15/10:30pm 17.8 17.4 15.2 85 1.5 WSW 11 19 6 10 1005.0 1004.9 0.0
15/10:00pm 18.0 17.6 15.3 84 1.6 SW 11 19 6 10 1004.8 1004.7 0.0
15/09:30pm 18.4 18.0 15.1 81 1.9 SW 11 19 6 10 1004.7 1004.6 0.0
15/09:00pm 18.7 17.6 15.4 81 1.9 SSW 15 26 8 14 1004.6 1004.5 0.0
15/08:30pm 19.2 18.5 15.3 78 2.3 SW 13 24 7 13 1004.4 1004.3 0.0
15/08:00pm 19.7 18.0 14.7 73 2.9 SW 17 26 9 14 1004.2 1004.1 0.0
15/07:30pm 20.8 19.2 14.9 69 3.5 SSW 17 24 9 13 1004.1 1004.0 0.0
15/07:00pm 21.3 19.2 13.7 62 4.4 SW 17 22 9 12 1003.7 1003.5 0.0
15/06:30pm 22.4 21.3 14.3 60 4.8 SSW 13 26 7 14 1003.6 1003.4 0.0
15/06:00pm 23.4 21.9 14.1 56 5.5 SW 15 24 8 13 1003.1 1002.9 0.0
15/05:30pm 22.3 19.9 12.5 53 5.6 SW 17 28 9 15 1002.9 1002.7 0.0
15/05:00pm 23.6 22.4 15.1 59 5.1 SW 15 24 8 13 1002.9 1002.7 0.0
15/04:30pm 23.7 22.9 14.1 55 5.7 SW 11 20 6 11 1003.1 1002.9 0.0
15/04:00pm 23.7 21.4 13.0 51 6.2 WSW 17 33 9 18 1003.4 1003.2 0.0
15/03:30pm 23.6 21.8 13.2 52 6.0 WSW 15 22 8 12 1003.7 1003.5 0.0
15/03:00pm 23.3 21.6 13.5 54 5.7 WSW 15 22 8 12 1004.0 1003.8 0.0
15/02:30pm 22.8 21.0 14.4 59 5.0 WSW 17 26 9 14 1004.4 1004.3 0.0
15/02:00pm 22.9 21.5 14.5 59 5.0 WSW 15 26 8 14 1004.8 1004.7 0.0
15/01:30pm 22.5 21.1 13.3 56 5.3 WSW 13 20 7 11 1004.9 1004.8 0.0
15/01:00pm 22.2 20.7 14.1 60 4.7 WSW 15 24 8 13 1005.3 1005.2 0.0
15/12:30pm 21.9 20.8 14.3 62 4.5 WSW 13 20 7 11 1005.4 1005.3 0.0
15/12:00pm 21.3 19.7 14.0 63 4.3 W 15 19 8 10 1005.4 1005.3 0.0
15/11:30am 21.3 19.7 14.0 63 4.3 W 15 20 8 11 1005.6 1005.5 0.0
15/11:00am 21.1 20.1 14.7 67 3.8 WSW 13 20 7 11 1005.7 1005.6 0.0
15/10:30am 22.2 21.4 11.6 51 5.9 N 7 11 4 6 1005.7 1005.6 0.0
15/10:00am 21.7 22.4 13.3 59 4.8 E 2 6 1 3 1006.1 1006.0 0.0
15/09:30am 20.7 21.8 13.6 64 4.1 CALM 0 7 0 4 1006.1 1006.0 0.0
15/09:00am 19.4 20.0 13.1 67 3.6 NNE 2 9 1 5 1006.1 1006.0 0.0
15/08:30am 18.6 18.6 13.5 72 2.9 NNE 6 9 3 5 1006.0 1005.9 0.0
15/08:00am 17.9 17.8 13.2 74 2.6 NE 6 11 3 6 1005.5 1005.4 0.0
15/07:30am 16.8 16.1 13.1 79 2.1 NE 9 13 5 7 1005.4 1005.3 0.0
15/07:00am 15.5 15.2 13.3 87 1.2 NNE 7 9 4 5 1005.4 1005.3 0.0
15/06:30am 14.7 15.9 13.7 94 0.6 CALM 0 0 0 0 1005.3 1005.2 0.0
15/06:00am 14.2 15.2 13.2 94 0.6 CALM 0 0 0 0 1005.3 1005.2 0.0
15/05:30am 14.0 14.8 12.7 92 0.7 CALM 0 0 0 0 1004.8 1004.7 0.0
15/05:17am 14.4 15.3 13.0 91 0.8 CALM 0 0 0 0 1004.7 1004.6 0.0
15/05:00am 14.5 15.4 12.9 90 0.9 CALM 0 0 0 0 1004.8 1004.7 0.0
15/04:30am 15.1 16.1 13.3 89 1.0 CALM 0 0 0 0 1004.6 1004.5 0.0
15/04:00am 15.7 16.0 13.4 86 1.3 S 4 9 2 5 1004.5 1004.4 0.0
15/03:30am 15.8 15.6 13.5 86 1.3 SSW 7 11 4 6 1004.4 1004.3 0.0
15/03:00am 15.9 15.2 13.2 84 1.5 S 9 15 5 8 1004.7 1004.6 0.0
15/02:30am 15.9 15.2 13.2 84 1.5 SSW 9 13 5 7 1005.0 1004.9 0.0
15/02:00am 16.2 15.5 13.3 83 1.6 SSW 9 13 5 7 1005.5 1005.4 0.0
15/01:30am 16.0 15.3 13.1 83 1.6 S 9 13 5 7 1005.3 1005.2 0.0
15/01:00am 16.4 14.9 13.1 81 1.8 S 13 22 7 12 1005.6 1005.5 0.0
15/12:30am 16.6 15.9 13.1 80 2.0 SSW 9 15 5 8 1006.3 1006.2 0.0
15/12:00am 16.6 15.5 13.1 80 2.0 S 11 17 6 9 1006.4 1006.3 0.0
 
Date/Time
CDT
Temp
°C
App
Temp
°C
Dew
Point
°C
Rel
Hum
%
Delta-T
°C
Wind Press
QNH
hPa
Press
MSL
hPa
Rain since
9am
mm
Dir  Spd
km/h
Gust
km/h
Spd
kts
Gust
kts
14/11:30pm 16.6 15.9 13.3 81 1.9 SSW 9 17 5 9 1006.4 1006.3 0.0
14/11:00pm 16.9 15.6 13.6 81 1.9 S 13 28 7 15 1006.6 1006.5 0.0
14/10:30pm 17.2 15.9 13.7 80 2.0 S 13 24 7 13 1006.8 1006.7 0.0
14/10:00pm 17.2 15.9 13.7 80 2.0 S 13 22 7 12 1006.8 1006.7 0.0
14/09:30pm 17.2 16.3 13.7 80 2.0 SSE 11 19 6 10 1006.6 1006.5 0.0
14/09:00pm 17.3 16.0 13.8 80 2.0 SSE 13 20 7 11 1006.2 1006.1 0.0
14/08:30pm 17.5 15.5 14.0 80 2.0 S 17 24 9 13 1006.1 1006.0 0.0
14/08:00pm 17.6 16.1 14.3 81 1.9 SSE 15 24 8 13 1006.2 1006.1 0.0
14/07:30pm 17.8 16.3 14.3 80 2.0 S 15 22 8 12 1005.8 1005.7 0.0
14/07:00pm 18.0 16.1 14.1 78 2.2 S 17 35 9 19 1005.3 1005.2 0.0
14/06:30pm 17.9 15.4 14.0 78 2.2 S 20 39 11 21 1005.1 1005.0 0.0

Latest Capital City Observations: Canberra | Sydney | Melbourne | Brisbane | Adelaide | Perth | Hobart | Darwin

Other Formats:

Comma delimited format used in spreadsheet applications
http://www.bom.gov.au/fwo/IDS60901/IDS60901.94648.axf

JavaScript Object Notation format (JSON) in row-major order
http://www.bom.gov.au/fwo/IDS60901/IDS60901.94648.json